createdAt,value
2018-12-04T00:01:43.142Z,9.96
2018-12-04T00:07:22.818Z,9.79
2018-12-04T00:09:52.806Z,9.82
2018-12-04T00:12:22.809Z,9.82
2018-12-04T00:14:53.021Z,9.77
2018-12-04T00:17:23.093Z,9.63
2018-12-04T00:22:55.697Z,9.72
2018-12-04T00:25:25.849Z,9.68
2018-12-04T00:27:55.879Z,9.74
2018-12-04T00:30:26.085Z,9.72
2018-12-04T00:32:56.104Z,9.68
2018-12-04T00:35:26.307Z,9.67
2018-12-04T00:37:56.462Z,9.67
2018-12-04T00:40:26.510Z,9.70
2018-12-04T00:42:56.588Z,9.64
2018-12-04T00:45:26.725Z,9.60
2018-12-04T00:48:36.985Z,9.57
2018-12-04T00:53:49.002Z,9.60
2018-12-04T00:56:19.213Z,9.61
2018-12-04T00:58:49.176Z,9.50
2018-12-04T01:05:00.769Z,9.64
2018-12-04T01:07:49.630Z,9.68
2018-12-04T01:10:19.680Z,9.73
2018-12-04T01:12:50.069Z,9.72
2018-12-04T01:15:20.067Z,9.67
2018-12-04T01:17:50.067Z,9.61
2018-12-04T01:20:20.241Z,9.63
2018-12-04T01:22:50.260Z,9.63
2018-12-04T01:25:20.273Z,9.72
2018-12-04T01:31:21.292Z,9.69
2018-12-04T01:33:51.395Z,9.73
2018-12-04T01:36:21.352Z,9.61
2018-12-04T01:38:51.353Z,9.61
2018-12-04T01:41:21.481Z,9.64
2018-12-04T01:43:51.491Z,9.63
2018-12-04T01:46:43.696Z,9.61
2018-12-04T01:49:13.726Z,9.67
2018-12-04T01:52:14.593Z,9.61
2018-12-04T01:54:44.566Z,9.49
2018-12-04T01:57:14.655Z,9.50
2018-12-04T01:59:44.741Z,9.52
2018-12-04T02:02:33.600Z,9.51
2018-12-04T02:05:03.677Z,9.46
2018-12-04T02:07:33.707Z,9.46
2018-12-04T02:13:06.220Z,9.39
2018-12-04T02:15:36.212Z,9.34
2018-12-04T02:18:06.207Z,9.34
2018-12-04T02:20:36.242Z,9.38
2018-12-04T02:23:06.204Z,9.25
2018-12-04T02:25:36.218Z,9.26
2018-12-04T02:28:06.303Z,9.24
2018-12-04T02:30:36.302Z,9.24
2018-12-04T02:33:06.307Z,9.24
2018-12-04T02:38:38.924Z,9.14
2018-12-04T02:41:08.918Z,9.09
2018-12-04T02:43:57.857Z,9.05
2018-12-04T02:46:27.849Z,9.03
2018-12-04T02:48:57.964Z,9.03
2018-12-04T02:54:39.697Z,9.10
2018-12-04T02:57:09.645Z,9.10
2018-12-04T03:00:10.360Z,9.07
2018-12-04T03:05:41.737Z,9.21
2018-12-04T03:08:11.794Z,9.12
2018-12-04T03:16:37.790Z,9.00
2018-12-04T03:22:10.735Z,8.95
2018-12-04T03:28:29.270Z,8.87
2018-12-04T03:30:59.447Z,8.82
2018-12-04T03:36:49.102Z,8.86
2018-12-04T03:39:58.285Z,8.80
2018-12-04T03:45:29.579Z,8.88
2018-12-04T03:47:59.583Z,8.86
2018-12-04T03:50:29.591Z,8.77
2018-12-04T03:53:38.880Z,8.82
2018-12-04T03:59:29.147Z,8.73
2018-12-04T04:10:53.162Z,8.79
2018-12-04T04:13:23.156Z,8.87
2018-12-04T04:15:53.163Z,8.83
2018-12-04T04:18:23.319Z,8.83
2018-12-04T04:20:53.332Z,8.74
2018-12-04T04:23:23.324Z,8.83
2018-12-04T04:26:32.519Z,8.90
2018-12-04T04:29:13.711Z,9.00
2018-12-04T04:31:43.785Z,9.09
2018-12-04T04:37:15.135Z,9.10
2018-12-04T04:39:45.142Z,9.17
2018-12-04T04:42:54.250Z,9.18
2018-12-04T04:45:55.230Z,9.11
2018-12-04T04:48:25.340Z,9.03
2018-12-04T04:50:55.316Z,8.93
2018-12-04T04:53:25.304Z,8.88
2018-12-04T04:55:55.431Z,8.81
2018-12-04T04:58:44.307Z,8.77
2018-12-04T05:01:14.312Z,8.64
2018-12-04T05:03:44.318Z,8.60
2018-12-04T05:06:53.500Z,8.56
2018-12-04T05:09:23.526Z,8.61
2018-12-04T05:11:53.567Z,8.66
2018-12-04T05:14:23.672Z,8.71
2018-12-04T05:16:53.637Z,8.57
2018-12-04T05:19:23.589Z,8.57
2018-12-04T05:21:53.871Z,8.53
2018-12-04T05:27:33.349Z,8.48
2018-12-04T05:30:03.342Z,8.42
2018-12-04T05:32:52.375Z,8.36
2018-12-04T05:35:22.357Z,8.36
2018-12-04T05:38:31.513Z,8.37
2018-12-04T05:44:11.043Z,8.28
2018-12-04T05:46:41.067Z,8.15
2018-12-04T05:49:11.118Z,8.19
2018-12-04T05:54:23.264Z,8.25
2018-12-04T05:57:32.544Z,8.22
2018-12-04T06:00:02.595Z,8.18
2018-12-04T06:03:11.767Z,8.19
2018-12-04T06:05:41.883Z,8.20
2018-12-04T06:08:11.976Z,8.14
2018-12-04T06:10:42.101Z,8.17
2018-12-04T06:13:12.140Z,8.15
2018-12-04T06:16:13.138Z,8.15
2018-12-04T06:18:53.519Z,8.26
2018-12-04T06:21:23.739Z,8.34
2018-12-04T06:23:53.739Z,8.34
2018-12-04T06:26:23.730Z,8.28
2018-12-04T06:28:53.887Z,8.26
2018-12-04T06:31:23.868Z,8.26
2018-12-04T06:33:53.955Z,8.24
2018-12-04T06:37:03.262Z,8.30
2018-12-04T06:42:35.229Z,8.48
2018-12-04T06:45:44.362Z,8.46
2018-12-04T06:48:53.596Z,8.49
2018-12-04T06:54:12.610Z,8.50
2018-12-04T06:56:42.591Z,8.23
2018-12-04T06:59:12.565Z,8.00
2018-12-04T07:04:44.991Z,7.87
2018-12-04T07:07:14.979Z,7.93
2018-12-04T07:09:44.991Z,8.00
2018-12-04T07:12:15.126Z,8.04
2018-12-04T07:14:45.125Z,8.01
2018-12-04T07:17:15.258Z,7.94
2018-12-04T07:25:29.879Z,7.84
2018-12-04T07:27:59.920Z,7.85
2018-12-04T07:30:29.965Z,7.77
2018-12-04T07:36:21.122Z,7.79
2018-12-04T07:39:01.603Z,7.77
2018-12-04T07:41:31.681Z,7.73
2018-12-04T07:47:15.285Z,7.69
2018-12-04T07:49:45.266Z,7.74
2018-12-04T07:52:15.293Z,7.81
2018-12-04T07:54:45.372Z,7.81
2018-12-04T07:57:15.323Z,7.79
2018-12-04T07:59:45.286Z,7.84
2018-12-04T08:02:15.358Z,7.89
2018-12-04T08:04:45.425Z,7.83
2018-12-04T08:07:15.497Z,7.93
2018-12-04T08:09:45.671Z,8.00
2018-12-04T08:12:15.658Z,8.01
2018-12-04T08:14:45.677Z,8.11
2018-12-04T08:17:15.818Z,8.09
2018-12-04T08:19:45.828Z,8.17
2018-12-04T08:22:15.847Z,8.24
2018-12-04T08:24:46.019Z,8.22
2018-12-04T08:33:12.434Z,8.25
2018-12-04T08:38:44.944Z,8.24
2018-12-04T08:41:14.924Z,8.30
2018-12-04T08:43:44.974Z,8.36
2018-12-04T08:46:15.006Z,8.30
2018-12-04T08:48:45.477Z,8.21
2018-12-04T08:51:15.649Z,8.13
2018-12-04T08:53:45.736Z,8.21
2018-12-04T08:56:15.904Z,8.04
2018-12-04T08:58:45.960Z,8.06
2018-12-04T09:04:49.562Z,8.07
2018-12-04T09:07:30.894Z,8.20
2018-12-04T09:12:42.959Z,8.13
2018-12-04T09:18:15.843Z,8.32
2018-12-04T09:20:45.882Z,8.50
2018-12-04T09:23:15.932Z,8.62
2018-12-04T09:26:04.957Z,8.71
2018-12-04T09:28:34.947Z,8.87
2018-12-04T09:31:04.916Z,8.92
2018-12-04T09:33:35.022Z,8.83
2018-12-04T09:36:04.990Z,9.02
2018-12-04T09:38:34.961Z,9.02
2018-12-04T09:41:05.057Z,9.00
2018-12-04T09:43:35.063Z,9.01
2018-12-04T09:46:05.045Z,9.04
2018-12-04T09:48:35.135Z,8.85
2018-12-04T09:51:05.107Z,8.79
2018-12-04T09:53:35.083Z,8.78
2018-12-04T09:56:23.923Z,8.77
2018-12-04T09:58:53.922Z,8.77
2018-12-04T10:01:23.942Z,8.84
2018-12-04T10:03:54.111Z,8.92
2018-12-04T10:06:24.087Z,8.94
2018-12-04T10:08:54.120Z,9.00
2018-12-04T10:11:24.225Z,9.07
2018-12-04T10:17:34.337Z,9.16
2018-12-04T10:20:14.907Z,8.96
2018-12-04T10:26:18.454Z,8.85
2018-12-04T10:28:38.189Z,8.73
2018-12-04T10:31:39.193Z,8.67
2018-12-04T10:34:09.578Z,8.53
2018-12-04T10:36:39.595Z,8.42
2018-12-04T10:39:09.745Z,8.43
2018-12-04T10:41:39.787Z,8.39
2018-12-04T10:44:11.869Z,8.44
2018-12-04T10:49:42.842Z,8.31
2018-12-04T10:54:55.030Z,8.46
2018-12-04T10:57:25.145Z,8.35
2018-12-04T10:59:55.231Z,8.44
2018-12-04T11:02:25.999Z,8.65
2018-12-04T11:04:56.071Z,8.65
2018-12-04T11:07:26.063Z,8.70
2018-12-04T11:09:56.048Z,8.90
2018-12-04T11:12:26.209Z,9.20
2018-12-04T11:14:56.225Z,9.21
2018-12-04T11:17:26.183Z,9.12
2018-12-04T11:19:56.265Z,8.94
2018-12-04T11:22:26.229Z,8.74
2018-12-04T11:24:56.198Z,8.69
2018-12-04T11:27:26.245Z,8.83
2018-12-04T11:29:56.270Z,8.84
2018-12-04T11:32:26.306Z,8.60
2018-12-04T11:34:56.537Z,8.45
2018-12-04T11:37:26.574Z,8.15
2018-12-04T11:39:56.782Z,8.12
2018-12-04T11:42:26.860Z,8.04
2018-12-04T11:44:57.318Z,7.83
2018-12-04T11:47:58.125Z,7.86
2018-12-04T11:50:39.909Z,7.87
2018-12-04T11:53:11.274Z,7.86
2018-12-04T11:55:42.414Z,7.95
2018-12-04T12:01:27.261Z,8.03
2018-12-04T12:03:57.305Z,8.04
2018-12-04T12:06:27.309Z,8.08
2018-12-04T12:08:57.414Z,8.12
2018-12-04T12:11:27.767Z,8.22
2018-12-04T12:13:57.798Z,8.30
2018-12-04T12:19:11.695Z,8.26
2018-12-04T12:24:26.166Z,8.30
2018-12-04T12:26:56.379Z,8.39
2018-12-04T12:29:26.385Z,8.40
2018-12-04T12:31:56.413Z,8.42
2018-12-04T12:34:26.520Z,8.33
2018-12-04T12:36:56.612Z,8.32
2018-12-04T12:39:26.611Z,8.29
2018-12-04T12:42:35.891Z,8.29
2018-12-04T12:45:06.932Z,8.30
2018-12-04T12:47:36.965Z,8.27
2018-12-04T12:52:57.901Z,8.29
2018-12-04T12:55:28.075Z,8.34
2018-12-04T12:57:58.103Z,8.45
2018-12-04T13:00:31.606Z,8.43
2018-12-04T13:03:01.692Z,8.44
2018-12-04T13:11:23.270Z,8.56
2018-12-04T13:13:53.270Z,8.59
2018-12-04T13:16:23.245Z,8.60
2018-12-04T13:19:12.228Z,8.56
2018-12-04T13:21:42.210Z,8.67
2018-12-04T13:24:12.217Z,8.69
2018-12-04T13:26:42.412Z,8.71
2018-12-04T13:29:12.504Z,8.70
2018-12-04T13:31:42.725Z,8.74
2018-12-04T13:34:12.873Z,8.80
2018-12-04T13:36:42.910Z,8.80
2018-12-04T13:39:14.024Z,8.77
2018-12-04T13:41:44.191Z,8.76
2018-12-04T13:47:24.414Z,8.77
2018-12-04T13:49:54.465Z,8.79
2018-12-04T13:53:03.666Z,8.77
2018-12-04T13:55:33.677Z,8.73
2018-12-04T13:58:03.731Z,8.73
2018-12-04T14:03:15.777Z,8.73
2018-12-04T14:05:45.792Z,8.81
2018-12-04T14:08:15.767Z,8.76
2018-12-04T14:10:45.777Z,8.73
2018-12-04T14:13:15.822Z,8.68
2018-12-04T14:15:45.892Z,8.70
2018-12-04T14:18:15.906Z,8.71
2018-12-04T14:20:45.943Z,8.68
2018-12-04T14:23:16.070Z,8.67
2018-12-04T14:25:46.167Z,8.65
2018-12-04T14:28:16.373Z,8.63
2018-12-04T14:30:46.370Z,8.60
2018-12-04T14:33:16.414Z,8.58
2018-12-04T14:35:46.508Z,8.58
2018-12-04T14:38:55.633Z,8.57
2018-12-04T14:47:10.268Z,8.47
2018-12-04T14:49:40.434Z,8.51
2018-12-04T14:52:10.506Z,8.47
2018-12-04T14:54:40.666Z,8.41
2018-12-04T14:57:10.908Z,8.44
2018-12-04T14:59:41.030Z,8.43
2018-12-04T15:02:11.094Z,8.42
2018-12-04T15:04:41.326Z,8.47
2018-12-04T15:07:11.383Z,8.43
2018-12-04T15:09:41.545Z,8.32
2018-12-04T15:12:11.700Z,8.35
2018-12-04T15:14:41.680Z,8.31
2018-12-04T15:17:33.448Z,8.23
2018-12-04T15:25:54.895Z,8.09
2018-12-04T15:28:24.892Z,8.14
2018-12-04T15:30:55.032Z,8.16
2018-12-04T15:33:25.073Z,8.13
2018-12-04T15:35:55.627Z,8.10
2018-12-04T15:38:26.834Z,8.14
2018-12-04T15:43:58.549Z,8.04
2018-12-04T15:46:32.628Z,8.00
2018-12-04T15:49:02.683Z,8.02
2018-12-04T15:51:32.842Z,8.09
2018-12-04T15:54:02.850Z,8.07
2018-12-04T15:56:32.841Z,8.26
2018-12-04T15:59:03.004Z,8.29
2018-12-04T16:01:51.820Z,8.39
2018-12-04T16:04:21.883Z,8.40
2018-12-04T16:10:01.417Z,8.14
2018-12-04T16:12:31.507Z,8.07
2018-12-04T16:15:01.511Z,8.09
2018-12-04T16:17:31.730Z,7.98
2018-12-04T16:20:01.862Z,7.97
2018-12-04T16:22:31.870Z,7.89
2018-12-04T16:25:02.015Z,7.89
2018-12-04T16:27:32.013Z,7.89
2018-12-04T16:30:01.982Z,7.88
2018-12-04T16:33:11.134Z,7.86
2018-12-04T16:35:41.136Z,7.78
2018-12-04T16:38:30.011Z,7.82
2018-12-04T16:41:00.096Z,7.80
2018-12-04T16:46:32.775Z,7.69
2018-12-04T16:49:03.069Z,7.72
2018-12-04T16:52:04.055Z,7.66
2018-12-04T16:54:34.117Z,7.70
2018-12-04T16:57:04.122Z,7.65
2018-12-04T16:59:34.188Z,7.61
2018-12-04T17:02:04.174Z,7.69
2018-12-04T17:04:34.323Z,7.64
2018-12-04T17:07:04.458Z,7.64
2018-12-04T17:09:34.471Z,7.66
2018-12-04T17:17:47.769Z,7.63
2018-12-04T17:20:17.783Z,7.63
2018-12-04T17:22:47.967Z,7.68
2018-12-04T17:25:18.189Z,7.70
2018-12-04T17:28:27.589Z,7.69
2018-12-04T17:30:57.628Z,7.67
2018-12-04T17:33:27.733Z,7.62
2018-12-04T17:35:57.851Z,7.62
2018-12-04T17:38:27.871Z,7.65
2018-12-04T17:40:57.881Z,7.63
2018-12-04T17:43:28.017Z,7.53
2018-12-04T17:45:57.994Z,7.51
2018-12-04T17:48:27.986Z,7.47
2018-12-04T17:50:58.132Z,7.46
2018-12-04T17:53:28.140Z,7.39
2018-12-04T17:55:58.140Z,7.45
2018-12-04T17:58:28.202Z,7.40
2018-12-04T18:00:58.236Z,7.42
2018-12-04T18:03:59.261Z,7.45
2018-12-04T18:06:29.437Z,7.46
2018-12-04T18:14:30.727Z,7.44
2018-12-04T18:17:00.883Z,7.42
2018-12-04T18:19:30.984Z,7.46
2018-12-04T18:22:01.199Z,7.44
2018-12-04T18:24:31.261Z,7.37
2018-12-04T18:27:01.286Z,7.36
2018-12-04T18:29:31.284Z,7.34
2018-12-04T18:32:01.440Z,7.34
2018-12-04T18:34:31.420Z,7.27
2018-12-04T18:37:01.427Z,7.30
2018-12-04T18:39:31.578Z,7.22
2018-12-04T18:45:02.873Z,7.24
2018-12-04T18:47:32.878Z,7.13
2018-12-04T18:50:02.900Z,7.05
2018-12-04T18:52:32.988Z,7.10
2018-12-04T18:55:03.045Z,7.11
2018-12-04T18:57:33.003Z,7.14
2018-12-04T19:00:03.092Z,7.00
2018-12-04T19:02:33.106Z,6.97
2018-12-04T19:05:03.083Z,6.96
2018-12-04T19:07:33.414Z,6.88
2018-12-04T19:10:03.472Z,6.89
2018-12-04T19:12:33.627Z,6.90
2018-12-04T19:18:24.857Z,6.90
2018-12-04T19:21:13.750Z,6.81
2018-12-04T19:23:43.740Z,6.80
2018-12-04T19:26:13.744Z,6.71
2018-12-04T19:31:46.309Z,6.75
2018-12-04T19:34:16.325Z,6.76
2018-12-04T19:36:46.256Z,6.74
2018-12-04T19:39:16.561Z,6.75
2018-12-04T19:41:46.566Z,6.64
2018-12-04T19:44:16.627Z,6.67
2018-12-04T19:46:46.678Z,6.58
2018-12-04T19:49:16.644Z,6.65
2018-12-04T19:51:46.647Z,6.59
2018-12-04T19:54:16.957Z,6.66
2018-12-04T19:56:46.917Z,6.69
2018-12-04T19:59:16.915Z,6.63
2018-12-04T20:01:47.130Z,6.64
2018-12-04T20:04:17.153Z,6.68
2018-12-04T20:06:47.164Z,6.71
2018-12-04T20:09:17.364Z,6.73
2018-12-04T20:11:47.332Z,6.68
2018-12-04T20:14:17.338Z,6.66
2018-12-04T20:16:47.576Z,6.71
2018-12-04T20:19:17.548Z,6.75
2018-12-04T20:21:47.591Z,6.79
2018-12-04T20:24:17.740Z,6.69
2018-12-04T20:26:47.860Z,6.65
2018-12-04T20:29:17.923Z,6.60
2018-12-04T20:31:48.010Z,6.63
2018-12-04T20:34:29.429Z,6.65
2018-12-04T20:36:59.491Z,6.62
2018-12-04T20:39:29.551Z,6.64
2018-12-04T20:41:59.621Z,6.59
2018-12-04T20:44:29.553Z,6.65
2018-12-04T20:46:59.620Z,6.58
2018-12-04T20:49:29.663Z,6.55
2018-12-04T20:51:59.684Z,6.53
2018-12-04T20:54:29.898Z,6.57
2018-12-04T20:56:59.924Z,6.54
2018-12-04T20:59:29.951Z,6.55
2018-12-04T21:02:00.176Z,6.55
2018-12-04T21:04:30.218Z,6.55
2018-12-04T21:07:00.245Z,6.45
2018-12-04T21:10:09.508Z,6.44
2018-12-04T21:12:39.668Z,6.50
2018-12-04T21:15:09.714Z,6.51
2018-12-04T21:17:40.120Z,6.47
2018-12-04T21:20:10.480Z,6.55
2018-12-04T21:22:40.481Z,6.55
2018-12-04T21:28:11.063Z,6.57
2018-12-04T21:30:59.764Z,6.41
2018-12-04T21:33:48.462Z,6.50
2018-12-04T21:36:48.862Z,6.59
2018-12-04T21:39:40.513Z,6.69
2018-12-04T21:42:29.377Z,6.58
2018-12-04T21:45:18.172Z,6.66
2018-12-04T21:48:07.150Z,6.67
2018-12-04T21:50:37.305Z,6.73
2018-12-04T21:53:07.361Z,6.69
2018-12-04T21:55:37.683Z,6.74
2018-12-04T21:58:07.749Z,6.81
2018-12-04T22:00:37.897Z,6.81
2018-12-04T22:03:08.023Z,6.79
2018-12-04T22:05:38.057Z,6.89
2018-12-04T22:08:08.055Z,6.97
2018-12-04T22:10:38.166Z,6.88
2018-12-04T22:13:08.268Z,6.86
2018-12-04T22:15:38.316Z,6.84
2018-12-04T22:21:09.163Z,6.89
2018-12-04T22:23:39.285Z,6.88
2018-12-04T22:26:09.268Z,6.89
2018-12-04T22:28:39.246Z,6.83
2018-12-04T22:31:09.319Z,6.78
2018-12-04T22:33:39.426Z,6.76
2018-12-04T22:36:09.406Z,6.77
2018-12-04T22:38:39.490Z,6.77
2018-12-04T22:41:09.505Z,6.74
2018-12-04T22:43:39.531Z,6.79
2018-12-04T22:49:02.952Z,6.83
2018-12-04T22:51:33.118Z,6.90
2018-12-04T22:54:03.228Z,6.93
2018-12-04T22:56:33.229Z,6.92
2018-12-04T22:59:03.325Z,6.95
2018-12-04T23:01:52.147Z,6.99
2018-12-04T23:04:22.225Z,6.97
2018-12-04T23:06:52.233Z,7.03
2018-12-04T23:09:22.259Z,7.01
2018-12-04T23:11:52.333Z,7.00
2018-12-04T23:14:22.271Z,6.94
2018-12-04T23:16:52.288Z,6.96
2018-12-04T23:19:22.491Z,6.95
2018-12-04T23:21:52.453Z,6.91
2018-12-04T23:24:22.475Z,6.86
2018-12-04T23:26:52.639Z,6.90
2018-12-04T23:29:22.657Z,6.88
2018-12-04T23:31:52.662Z,6.84
2018-12-04T23:34:41.509Z,6.81
2018-12-04T23:37:11.533Z,6.71
2018-12-04T23:39:41.526Z,6.72
2018-12-04T23:47:55.901Z,6.61
2018-12-04T23:50:25.933Z,6.53
2018-12-04T23:52:55.905Z,6.55
2018-12-04T23:55:25.984Z,6.56
2018-12-04T23:58:35.229Z,6.64
